createdAt,value
2022-10-05T00:01:46.998Z,18.57
2022-10-05T00:04:15.624Z,18.55
2022-10-05T00:06:51.079Z,18.53
2022-10-05T00:09:21.285Z,18.54
2022-10-05T00:11:48.858Z,18.48
2022-10-05T00:14:30.249Z,18.51
2022-10-05T00:16:57.555Z,18.55
2022-10-05T00:19:30.953Z,18.51
2022-10-05T00:22:19.294Z,18.50
2022-10-05T00:24:48.531Z,18.50
2022-10-05T00:27:15.093Z,18.46
2022-10-05T00:29:41.653Z,18.43
2022-10-05T00:32:10.596Z,18.44
2022-10-05T00:34:37.848Z,18.43
2022-10-05T00:37:05.249Z,18.42
2022-10-05T00:39:33.172Z,18.42
2022-10-05T00:41:59.649Z,18.41
2022-10-05T00:44:45.861Z,18.40
2022-10-05T00:47:12.269Z,18.38
2022-10-05T00:49:57.489Z,18.39
2022-10-05T00:52:51.666Z,18.41
2022-10-05T00:55:20.823Z,18.37
2022-10-05T00:57:56.395Z,18.36
2022-10-05T01:00:26.805Z,18.40
2022-10-05T01:03:35.231Z,18.36
2022-10-05T01:06:23.291Z,18.39
2022-10-05T01:09:06.871Z,18.38
2022-10-05T01:11:50.935Z,18.40
2022-10-05T01:14:27.348Z,18.41
2022-10-05T01:17:18.526Z,18.42
2022-10-05T01:20:05.600Z,18.44
2022-10-05T01:22:44.278Z,18.46
2022-10-05T01:25:28.999Z,18.46
2022-10-05T01:28:19.228Z,18.44
2022-10-05T01:31:06.102Z,18.44
2022-10-05T01:33:46.312Z,18.44
2022-10-05T01:36:36.161Z,18.43
2022-10-05T01:39:02.605Z,18.47
2022-10-05T01:41:49.272Z,18.48
2022-10-05T01:44:21.101Z,18.49
2022-10-05T01:47:03.673Z,18.49
2022-10-05T01:49:38.766Z,18.51
2022-10-05T01:52:14.409Z,18.48
2022-10-05T01:54:40.892Z,18.50
2022-10-05T01:57:13.054Z,18.52
2022-10-05T01:59:54.878Z,18.49
2022-10-05T02:02:24.343Z,18.47
2022-10-05T02:05:03.532Z,18.48
2022-10-05T02:07:42.442Z,18.48
2022-10-05T02:10:30.960Z,18.48
2022-10-05T02:13:38.298Z,18.47
2022-10-05T02:16:10.328Z,18.50
2022-10-05T02:18:43.897Z,18.48
2022-10-05T02:21:11.002Z,18.51
2022-10-05T02:23:40.573Z,18.50
2022-10-05T02:26:11.140Z,18.51
2022-10-05T02:28:53.397Z,18.53
2022-10-05T02:31:25.008Z,18.55
2022-10-05T02:33:51.606Z,18.55
2022-10-05T02:36:27.549Z,18.58
2022-10-05T02:39:05.818Z,18.54
2022-10-05T02:41:42.325Z,18.55
2022-10-05T02:44:24.485Z,18.57
2022-10-05T02:47:23.894Z,18.54
2022-10-05T02:49:59.426Z,18.55
2022-10-05T02:52:41.221Z,18.57
2022-10-05T02:55:23.220Z,18.54
2022-10-05T02:57:49.664Z,18.50
2022-10-05T03:00:19.618Z,18.51
2022-10-05T03:03:08.211Z,18.50
2022-10-05T03:05:49.319Z,18.51
2022-10-05T03:08:42.066Z,18.56
2022-10-05T03:11:18.893Z,18.51
2022-10-05T03:14:22.857Z,18.55
2022-10-05T03:17:11.203Z,18.54
2022-10-05T03:19:49.942Z,18.50
2022-10-05T03:22:31.415Z,18.46
2022-10-05T03:25:16.612Z,18.44
2022-10-05T03:27:57.255Z,18.44
2022-10-05T03:30:26.579Z,18.42
2022-10-05T03:32:55.730Z,18.47
2022-10-05T03:36:06.836Z,18.43
2022-10-05T03:38:39.089Z,18.46
2022-10-05T03:41:11.554Z,18.51
2022-10-05T03:43:37.980Z,18.51
2022-10-05T03:46:22.869Z,18.55
2022-10-05T03:48:56.821Z,18.51
2022-10-05T03:51:29.790Z,18.51
2022-10-05T03:54:05.162Z,18.55
2022-10-05T03:56:38.636Z,18.57
2022-10-05T03:59:17.320Z,18.60
2022-10-05T04:01:55.092Z,18.62
2022-10-05T04:04:49.752Z,18.57
2022-10-05T04:07:29.666Z,18.57
2022-10-05T04:09:58.150Z,18.57
2022-10-05T04:12:27.327Z,18.58
2022-10-05T04:14:57.055Z,18.57
2022-10-05T04:17:40.855Z,18.55
2022-10-05T04:20:25.606Z,18.53
2022-10-05T04:23:07.834Z,18.56
2022-10-05T04:25:41.674Z,18.59
2022-10-05T04:28:22.476Z,18.56
2022-10-05T04:30:53.312Z,18.58
2022-10-05T04:33:21.392Z,18.60
2022-10-05T04:35:56.825Z,18.54
2022-10-05T04:38:46.188Z,18.51
2022-10-05T04:41:43.594Z,18.55
2022-10-05T04:44:47.894Z,18.57
2022-10-05T04:47:26.449Z,18.55
2022-10-05T04:50:07.805Z,18.54
2022-10-05T04:52:55.581Z,18.52
2022-10-05T04:55:24.650Z,18.56
2022-10-05T04:58:06.300Z,18.54
2022-10-05T05:01:05.122Z,18.55
2022-10-05T05:03:40.766Z,18.52
2022-10-05T05:06:28.656Z,18.55
2022-10-05T05:09:07.321Z,18.56
2022-10-05T05:11:51.270Z,18.59
2022-10-05T05:14:39.102Z,18.63
2022-10-05T05:17:31.040Z,18.63
2022-10-05T05:20:32.718Z,18.61
2022-10-05T05:23:21.034Z,18.60
2022-10-05T05:26:01.389Z,18.59
2022-10-05T05:28:59.605Z,18.59
2022-10-05T05:32:09.157Z,18.55
2022-10-05T05:34:55.042Z,18.53
2022-10-05T05:37:43.568Z,18.51
2022-10-05T05:40:09.966Z,18.55
2022-10-05T05:42:45.333Z,18.48
2022-10-05T05:45:20.910Z,18.48
2022-10-05T05:47:57.373Z,18.47
2022-10-05T05:50:34.796Z,18.44
2022-10-05T05:53:01.228Z,18.50
2022-10-05T05:55:50.190Z,18.48
2022-10-05T05:58:16.633Z,18.51
2022-10-05T06:00:58.870Z,18.45
2022-10-05T06:03:39.487Z,18.51
2022-10-05T06:06:19.897Z,18.49
2022-10-05T06:09:03.047Z,18.49
2022-10-05T06:11:37.303Z,18.47
2022-10-05T06:14:13.050Z,18.46
2022-10-05T06:16:47.423Z,18.45
2022-10-05T06:19:16.781Z,18.46
2022-10-05T06:21:46.323Z,18.46
2022-10-05T06:24:21.057Z,18.48
2022-10-05T06:27:05.587Z,18.49
2022-10-05T06:29:55.069Z,18.51
2022-10-05T06:32:34.889Z,18.52
2022-10-05T06:35:08.773Z,18.52
2022-10-05T06:37:55.005Z,18.53
2022-10-05T06:40:37.769Z,18.53
2022-10-05T06:43:04.206Z,18.56
2022-10-05T06:45:45.594Z,18.60
2022-10-05T06:48:27.118Z,18.60
2022-10-05T06:51:04.112Z,18.66
2022-10-05T06:54:15.253Z,18.66
2022-10-05T06:57:23.798Z,18.73
2022-10-05T06:59:55.326Z,18.82
2022-10-05T07:02:30.869Z,18.93
2022-10-05T07:05:12.438Z,18.93
2022-10-05T07:07:57.782Z,18.93
2022-10-05T07:10:41.557Z,18.98
2022-10-05T07:13:36.014Z,19.00
2022-10-05T07:16:45.578Z,19.03
2022-10-05T07:19:52.449Z,19.08
2022-10-05T07:22:36.940Z,19.13
2022-10-05T07:25:23.885Z,19.13
2022-10-05T07:28:00.143Z,19.18
2022-10-05T07:30:26.680Z,19.19
2022-10-05T07:33:12.153Z,19.21
2022-10-05T07:36:18.629Z,19.25
2022-10-05T07:38:52.707Z,19.32
2022-10-05T07:41:28.133Z,19.36
2022-10-05T07:44:13.072Z,19.40
2022-10-05T07:46:59.865Z,19.38
2022-10-05T07:49:28.979Z,19.38
2022-10-05T07:52:00.569Z,19.37
2022-10-05T07:54:36.914Z,19.43
2022-10-05T07:57:15.549Z,19.54
2022-10-05T07:59:50.065Z,19.62
2022-10-05T08:03:01.121Z,19.67
2022-10-05T08:05:38.233Z,19.78
2022-10-05T08:08:23.730Z,19.80
2022-10-05T08:11:13.409Z,19.86
2022-10-05T08:13:57.158Z,19.89
2022-10-05T08:16:28.936Z,19.82
2022-10-05T08:19:02.506Z,19.79
2022-10-05T08:21:38.126Z,19.76
2022-10-05T08:24:22.931Z,19.76
2022-10-05T08:27:05.116Z,19.70
2022-10-05T08:30:11.137Z,19.75
2022-10-05T08:32:57.122Z,19.71
2022-10-05T08:35:34.870Z,19.72
2022-10-05T08:38:16.739Z,19.68
2022-10-05T08:41:13.223Z,19.58
2022-10-05T08:44:10.853Z,19.48
2022-10-05T08:47:06.238Z,19.45
2022-10-05T08:49:57.012Z,19.41
2022-10-05T08:52:29.257Z,19.39
2022-10-05T08:55:06.179Z,19.37
2022-10-05T08:57:41.883Z,19.32
2022-10-05T09:00:13.061Z,19.32
2022-10-05T09:02:57.707Z,19.33
2022-10-05T09:05:42.824Z,19.38
2022-10-05T09:08:15.369Z,19.38
2022-10-05T09:11:00.683Z,19.36
2022-10-05T09:14:04.456Z,19.38
2022-10-05T09:16:52.865Z,19.38
2022-10-05T09:19:43.841Z,19.42
2022-10-05T09:22:38.314Z,19.44
2022-10-05T09:25:35.749Z,19.45
2022-10-05T09:28:18.213Z,19.48
2022-10-05T09:31:02.130Z,19.43
2022-10-05T09:34:13.521Z,19.32
2022-10-05T09:37:08.630Z,19.34
2022-10-05T09:40:05.743Z,19.25
2022-10-05T09:42:45.154Z,19.02
2022-10-05T09:45:45.705Z,18.53
2022-10-05T09:48:30.879Z,17.69
2022-10-05T09:51:06.475Z,17.96
2022-10-05T09:53:46.547Z,18.15
2022-10-05T09:56:33.376Z,18.35
2022-10-05T09:59:11.174Z,18.51
2022-10-05T10:01:40.301Z,18.50
2022-10-05T10:04:12.867Z,18.49
2022-10-05T10:06:54.494Z,18.37
2022-10-05T10:09:38.837Z,18.27
2022-10-05T10:12:08.297Z,18.13
2022-10-05T10:15:16.329Z,17.99
2022-10-05T10:18:03.447Z,17.97
2022-10-05T10:21:03.672Z,17.86
2022-10-05T10:24:14.716Z,17.90
2022-10-05T10:26:47.785Z,17.89
2022-10-05T10:29:41.983Z,17.69
2022-10-05T10:32:26.286Z,17.76
2022-10-05T10:35:18.926Z,17.79
2022-10-05T10:38:23.857Z,17.88
2022-10-05T10:41:27.902Z,17.99
2022-10-05T10:44:23.681Z,17.91
2022-10-05T10:47:11.705Z,17.86
2022-10-05T10:50:16.319Z,17.83
2022-10-05T10:53:39.385Z,17.79
2022-10-05T10:56:33.095Z,17.77
2022-10-05T10:59:26.563Z,17.69
2022-10-05T11:02:01.566Z,17.71
2022-10-05T11:04:40.507Z,17.78
2022-10-05T11:07:36.126Z,17.96
2022-10-05T11:10:20.649Z,18.26
2022-10-05T11:13:24.889Z,18.37
2022-10-05T11:19:16.451Z,18.23
2022-10-05T11:22:07.342Z,18.26
2022-10-05T11:25:06.149Z,18.07
2022-10-05T11:28:10.220Z,18.00
2022-10-05T11:31:10.908Z,17.79
2022-10-05T11:34:14.238Z,17.90
2022-10-05T11:37:09.174Z,18.12
2022-10-05T11:39:55.568Z,18.21
2022-10-05T11:42:28.138Z,18.33
2022-10-05T11:45:22.582Z,18.18
2022-10-05T11:48:00.682Z,17.95
2022-10-05T11:50:50.654Z,17.99
2022-10-05T11:53:29.476Z,17.95
2022-10-05T11:56:05.015Z,17.91
2022-10-05T11:58:42.333Z,17.85
2022-10-05T12:01:29.370Z,17.74
2022-10-05T12:04:08.565Z,17.61
2022-10-05T12:06:52.979Z,17.64
2022-10-05T12:09:34.411Z,17.60
2022-10-05T12:12:00.876Z,17.56
2022-10-05T12:14:45.617Z,17.44
2022-10-05T12:17:14.774Z,17.49
2022-10-05T12:19:45.970Z,17.47
2022-10-05T12:22:21.858Z,17.45
2022-10-05T12:25:04.757Z,17.44
2022-10-05T12:27:39.514Z,17.47
2022-10-05T12:30:16.670Z,17.41
2022-10-05T12:33:02.212Z,17.48
2022-10-05T12:35:55.705Z,17.48
2022-10-05T12:38:28.604Z,17.58
2022-10-05T12:41:27.278Z,17.58
2022-10-05T12:44:12.271Z,17.37
2022-10-05T12:46:54.255Z,17.40
2022-10-05T12:49:43.848Z,17.42
2022-10-05T12:52:43.368Z,17.34
2022-10-05T12:55:12.848Z,17.34
2022-10-05T12:57:57.871Z,17.38
2022-10-05T13:00:24.754Z,17.45
2022-10-05T13:03:01.700Z,17.50
2022-10-05T13:05:40.764Z,17.39
2022-10-05T13:08:45.251Z,17.35
2022-10-05T13:11:16.959Z,17.27
2022-10-05T13:13:54.771Z,17.29
2022-10-05T13:16:39.964Z,17.22
2022-10-05T13:19:35.737Z,17.07
2022-10-05T13:22:25.476Z,16.94
2022-10-05T13:25:20.529Z,16.93
2022-10-05T13:28:08.811Z,16.91
2022-10-05T13:30:36.977Z,16.88
2022-10-05T13:33:20.299Z,16.95
2022-10-05T13:36:10.648Z,17.06
2022-10-05T13:39:00.666Z,17.07
2022-10-05T13:41:36.641Z,17.18
2022-10-05T13:44:18.914Z,17.07
2022-10-05T13:46:53.681Z,17.02
2022-10-05T13:49:49.549Z,17.06
2022-10-05T13:52:42.393Z,17.19
2022-10-05T13:55:35.006Z,17.34
2022-10-05T13:58:07.626Z,17.69
2022-10-05T14:00:44.898Z,17.78
2022-10-05T14:03:29.976Z,17.89
2022-10-05T14:05:59.881Z,17.95
2022-10-05T14:08:46.194Z,17.96
2022-10-05T14:11:26.749Z,17.91
2022-10-05T14:14:03.889Z,17.95
2022-10-05T14:16:33.289Z,18.00
2022-10-05T14:19:05.714Z,18.11
2022-10-05T14:21:42.993Z,18.21
2022-10-05T14:24:43.202Z,18.36
2022-10-05T14:27:33.100Z,19.54
2022-10-05T14:30:16.952Z,19.86
2022-10-05T14:33:05.872Z,20.57
2022-10-05T14:35:52.449Z,20.57
2022-10-05T14:38:26.475Z,20.96
2022-10-05T14:41:07.874Z,20.62
2022-10-05T14:43:35.175Z,20.31
2022-10-05T14:46:23.348Z,20.08
2022-10-05T14:49:24.166Z,19.67
2022-10-05T14:51:51.767Z,19.54
2022-10-05T14:54:36.705Z,19.30
2022-10-05T14:57:06.628Z,19.33
2022-10-05T14:59:36.173Z,19.58
2022-10-05T15:02:21.161Z,19.82
2022-10-05T15:05:00.293Z,19.92
2022-10-05T15:07:49.213Z,19.86
2022-10-05T15:10:30.700Z,20.32
2022-10-05T15:13:11.313Z,20.61
2022-10-05T15:15:46.986Z,20.77
2022-10-05T15:18:27.230Z,20.92
2022-10-05T15:21:21.592Z,21.39
2022-10-05T15:23:59.233Z,21.34
2022-10-05T15:26:50.570Z,21.15
2022-10-05T15:29:38.859Z,21.05
2022-10-05T15:32:23.980Z,21.15
2022-10-05T15:35:08.274Z,21.29
2022-10-05T15:37:44.535Z,21.53
2022-10-05T15:40:36.536Z,21.33
2022-10-05T15:43:10.201Z,21.25
2022-10-05T15:45:42.893Z,21.13
2022-10-05T15:48:21.553Z,21.27
2022-10-05T15:51:00.584Z,20.92
2022-10-05T15:53:48.501Z,20.67
2022-10-05T15:56:33.703Z,20.72
2022-10-05T15:59:18.540Z,20.77
2022-10-05T16:01:51.845Z,20.71
2022-10-05T16:04:28.638Z,20.60
2022-10-05T16:07:18.493Z,20.51
2022-10-05T16:09:49.856Z,20.45
2022-10-05T16:12:31.400Z,20.37
2022-10-05T16:15:20.274Z,20.24
2022-10-05T16:18:18.251Z,20.03
2022-10-05T16:20:57.524Z,19.92
2022-10-05T16:23:50.317Z,19.71
2022-10-05T16:26:36.436Z,19.50
2022-10-05T16:29:13.003Z,18.98
2022-10-05T16:32:00.032Z,18.95
2022-10-05T16:34:45.147Z,18.89
2022-10-05T16:37:23.688Z,18.76
2022-10-05T16:39:55.031Z,18.72
2022-10-05T16:42:34.935Z,18.66
2022-10-05T16:45:45.605Z,18.57
2022-10-05T16:48:23.124Z,18.47
2022-10-05T16:51:05.243Z,18.37
2022-10-05T16:53:47.055Z,18.21
2022-10-05T16:56:18.637Z,18.08
2022-10-05T16:59:06.803Z,17.97
2022-10-05T17:01:50.153Z,17.83
2022-10-05T17:04:34.694Z,17.78
2022-10-05T17:07:39.412Z,17.67
2022-10-05T17:10:27.827Z,17.55
2022-10-05T17:13:31.456Z,17.49
2022-10-05T17:16:14.482Z,17.39
2022-10-05T17:18:56.212Z,17.06
2022-10-05T17:21:41.318Z,16.85
2022-10-05T17:24:23.119Z,16.69
2022-10-05T17:27:19.062Z,16.55
2022-10-05T17:29:49.949Z,16.36
2022-10-05T17:32:16.384Z,16.37
2022-10-05T17:35:01.386Z,16.20
2022-10-05T17:37:27.816Z,16.27
2022-10-05T17:39:56.084Z,16.35
2022-10-05T17:42:32.520Z,16.30
2022-10-05T17:45:14.264Z,16.33
2022-10-05T17:48:11.351Z,16.42
2022-10-05T17:50:58.978Z,16.37
2022-10-05T17:53:53.922Z,16.32
2022-10-05T17:56:22.299Z,16.36
2022-10-05T17:58:57.561Z,16.34
2022-10-05T18:01:36.043Z,16.20
2022-10-05T18:04:37.924Z,16.17
2022-10-05T18:07:19.135Z,16.09
2022-10-05T18:09:56.275Z,16.01
2022-10-05T18:12:24.200Z,15.90
2022-10-05T18:15:07.380Z,15.86
2022-10-05T18:17:51.350Z,15.81
2022-10-05T18:20:34.955Z,15.81
2022-10-05T18:23:07.257Z,15.87
2022-10-05T18:25:38.186Z,15.88
2022-10-05T18:28:13.905Z,15.79
2022-10-05T18:31:01.176Z,15.76
2022-10-05T18:33:50.612Z,15.73
2022-10-05T18:36:24.092Z,15.59
2022-10-05T18:39:15.101Z,15.56
2022-10-05T18:42:24.565Z,15.52
2022-10-05T18:45:00.641Z,15.53
2022-10-05T18:47:47.869Z,15.50
2022-10-05T18:50:25.499Z,15.45
2022-10-05T18:53:04.648Z,15.44
2022-10-05T18:56:02.180Z,15.39
2022-10-05T18:58:36.797Z,15.35
2022-10-05T19:01:12.004Z,15.32
2022-10-05T19:03:49.148Z,15.25
2022-10-05T19:06:24.297Z,15.16
2022-10-05T19:08:57.377Z,15.21
2022-10-05T19:11:59.305Z,15.23
2022-10-05T19:14:35.081Z,15.23
2022-10-05T19:17:45.198Z,15.21
2022-10-05T19:20:25.134Z,15.22
2022-10-05T19:23:29.858Z,15.20
2022-10-05T19:26:08.986Z,15.24
2022-10-05T19:28:41.128Z,15.27
2022-10-05T19:31:26.507Z,15.29
2022-10-05T19:34:13.409Z,15.10
2022-10-05T19:36:51.965Z,15.24
2022-10-05T19:39:27.462Z,15.24
2022-10-05T19:42:23.048Z,15.25
2022-10-05T19:44:52.555Z,15.20
2022-10-05T19:47:22.273Z,15.16
2022-10-05T19:49:51.490Z,15.07
2022-10-05T19:52:44.176Z,15.05
2022-10-05T19:55:26.577Z,15.01
2022-10-05T19:57:56.285Z,14.97
2022-10-05T20:00:32.803Z,14.89
2022-10-05T20:03:29.508Z,14.79
2022-10-05T20:06:07.782Z,14.78
2022-10-05T20:08:43.777Z,14.73
2022-10-05T20:11:18.803Z,14.74
2022-10-05T20:13:58.418Z,14.72
2022-10-05T20:19:36.027Z,14.61
2022-10-05T20:22:27.328Z,14.59
2022-10-05T20:24:56.704Z,14.56
2022-10-05T20:27:37.313Z,14.49
2022-10-05T20:30:06.049Z,14.44
2022-10-05T20:32:32.514Z,14.44
2022-10-05T20:34:59.083Z,14.40
2022-10-05T20:37:25.646Z,14.40
2022-10-05T20:39:52.674Z,14.38
2022-10-05T20:42:20.841Z,14.38
2022-10-05T20:44:49.937Z,14.40
2022-10-05T20:47:19.615Z,14.40
2022-10-05T20:49:46.098Z,14.39
2022-10-05T20:52:15.071Z,14.35
2022-10-05T20:54:42.322Z,14.38
2022-10-05T20:57:09.503Z,14.33
2022-10-05T20:59:36.326Z,14.29
2022-10-05T21:02:03.815Z,14.33
2022-10-05T21:04:40.826Z,14.34
2022-10-05T21:07:08.221Z,14.35
2022-10-05T21:09:34.740Z,14.34
2022-10-05T21:12:01.264Z,14.33
2022-10-05T21:14:34.114Z,14.35
2022-10-05T21:17:02.025Z,14.33
2022-10-05T21:19:29.516Z,14.39
2022-10-05T21:21:59.631Z,14.34
2022-10-05T21:24:26.482Z,14.31
2022-10-05T21:26:57.574Z,14.32
2022-10-05T21:29:24.232Z,14.35
2022-10-05T21:31:51.192Z,14.31
2022-10-05T21:34:17.806Z,14.32
2022-10-05T21:36:44.258Z,14.30
2022-10-05T21:39:10.842Z,14.28
2022-10-05T21:41:37.306Z,14.29
2022-10-05T21:44:04.168Z,14.27
2022-10-05T21:46:31.640Z,14.25
2022-10-05T21:48:58.299Z,14.26
2022-10-05T21:51:26.361Z,14.21
2022-10-05T21:54:01.778Z,14.19
2022-10-05T21:56:32.206Z,14.19
2022-10-05T21:59:00.907Z,14.18
2022-10-05T22:01:29.059Z,14.17
2022-10-05T22:03:56.962Z,14.12
2022-10-05T22:06:23.516Z,14.09
2022-10-05T22:08:50.059Z,14.10
2022-10-05T22:11:17.773Z,14.10
2022-10-05T22:13:48.744Z,14.09
2022-10-05T22:16:16.917Z,14.07
2022-10-05T22:18:43.847Z,14.11
2022-10-05T22:21:15.051Z,14.12
2022-10-05T22:23:43.671Z,14.14
2022-10-05T22:26:12.938Z,14.12
2022-10-05T22:28:40.949Z,14.18
2022-10-05T22:31:09.557Z,14.15
2022-10-05T22:33:37.356Z,14.13
2022-10-05T22:36:05.797Z,14.04
2022-10-05T22:38:32.690Z,14.13
2022-10-05T22:40:59.446Z,14.16
2022-10-05T22:43:27.019Z,14.11
2022-10-05T22:45:54.442Z,14.19
2022-10-05T22:48:21.094Z,14.20
2022-10-05T22:50:48.906Z,14.20
2022-10-05T22:53:15.544Z,14.19
2022-10-05T22:55:42.047Z,14.20
2022-10-05T22:58:08.529Z,14.19
2022-10-05T23:00:57.141Z,14.19
2022-10-05T23:03:21.760Z,14.17
2022-10-05T23:05:48.297Z,14.15
2022-10-05T23:08:16.106Z,14.05
2022-10-05T23:10:43.377Z,14.10
2022-10-05T23:13:09.895Z,14.05
2022-10-05T23:15:36.407Z,14.04
2022-10-05T23:18:02.944Z,14.09
